sensor_id;sensor_type;location;lat;lon;timestamp;P1;durP1;ratioP1;P2;durP2;ratioP2
5491;SDS011;2768;53.540;10.224;2023-09-08T00:04:16;6.10;;;5.10;;
5491;SDS011;2768;53.540;10.224;2023-09-08T00:10:12;5.27;;;4.77;;
5491;SDS011;2768;53.540;10.224;2023-09-08T00:16:07;5.80;;;5.20;;
5491;SDS011;2768;53.540;10.224;2023-09-08T00:22:01;8.00;;;5.90;;
5491;SDS011;2768;53.540;10.224;2023-09-08T00:27:59;6.00;;;4.90;;
5491;SDS011;2768;53.540;10.224;2023-09-08T00:33:52;6.17;;;5.67;;
5491;SDS011;2768;53.540;10.224;2023-09-08T00:39:47;7.40;;;5.13;;
5491;SDS011;2768;53.540;10.224;2023-09-08T00:45:42;7.23;;;5.40;;
5491;SDS011;2768;53.540;10.224;2023-09-08T00:51:36;6.30;;;4.90;;
5491;SDS011;2768;53.540;10.224;2023-09-08T00:57:30;5.70;;;5.17;;
5491;SDS011;2768;53.540;10.224;2023-09-08T01:03:25;5.90;;;5.33;;
5491;SDS011;2768;53.540;10.224;2023-09-08T01:09:19;5.93;;;5.37;;
5491;SDS011;2768;53.540;10.224;2023-09-08T01:15:13;5.50;;;5.03;;
5491;SDS011;2768;53.540;10.224;2023-09-08T01:27:38;6.23;;;5.37;;
5491;SDS011;2768;53.540;10.224;2023-09-08T01:33:37;6.10;;;5.50;;
5491;SDS011;2768;53.540;10.224;2023-09-08T01:39:30;9.33;;;5.70;;
5491;SDS011;2768;53.540;10.224;2023-09-08T01:45:25;6.30;;;5.70;;
5491;SDS011;2768;53.540;10.224;2023-09-08T01:51:19;6.77;;;6.10;;
5491;SDS011;2768;53.540;10.224;2023-09-08T01:57:12;6.30;;;5.70;;
5491;SDS011;2768;53.540;10.224;2023-09-08T02:03:07;6.30;;;5.70;;
5491;SDS011;2768;53.540;10.224;2023-09-08T02:09:00;6.50;;;5.93;;
5491;SDS011;2768;53.540;10.224;2023-09-08T02:14:56;6.23;;;5.63;;
5491;SDS011;2768;53.540;10.224;2023-09-08T02:20:51;6.37;;;5.73;;
5491;SDS011;2768;53.540;10.224;2023-09-08T02:26:45;8.17;;;6.60;;
5491;SDS011;2768;53.540;10.224;2023-09-08T02:32:38;6.40;;;5.90;;
5491;SDS011;2768;53.540;10.224;2023-09-08T02:38:38;5.73;;;5.23;;
5491;SDS011;2768;53.540;10.224;2023-09-08T02:44:32;7.07;;;6.40;;
5491;SDS011;2768;53.540;10.224;2023-09-08T02:50:26;6.80;;;6.20;;
5491;SDS011;2768;53.540;10.224;2023-09-08T02:56:21;7.53;;;6.10;;
5491;SDS011;2768;53.540;10.224;2023-09-08T03:02:14;6.50;;;6.00;;
5491;SDS011;2768;53.540;10.224;2023-09-08T03:08:07;7.67;;;6.97;;
5491;SDS011;2768;53.540;10.224;2023-09-08T03:14:02;6.70;;;6.00;;
5491;SDS011;2768;53.540;10.224;2023-09-08T03:19:56;6.80;;;6.10;;
5491;SDS011;2768;53.540;10.224;2023-09-08T03:25:50;7.17;;;6.47;;
5491;SDS011;2768;53.540;10.224;2023-09-08T03:31:45;7.63;;;7.03;;
5491;SDS011;2768;53.540;10.224;2023-09-08T03:37:39;7.20;;;6.50;;
5491;SDS011;2768;53.540;10.224;2023-09-08T03:43:32;7.63;;;6.90;;
5491;SDS011;2768;53.540;10.224;2023-09-08T03:49:28;6.70;;;6.10;;
5491;SDS011;2768;53.540;10.224;2023-09-08T03:55:22;9.77;;;7.20;;
5491;SDS011;2768;53.540;10.224;2023-09-08T04:01:16;8.00;;;7.20;;
5491;SDS011;2768;53.540;10.224;2023-09-08T04:07:12;7.43;;;6.73;;
5491;SDS011;2768;53.540;10.224;2023-09-08T04:13:05;7.50;;;6.90;;
5491;SDS011;2768;53.540;10.224;2023-09-08T04:18:58;9.10;;;6.47;;
5491;SDS011;2768;53.540;10.224;2023-09-08T04:24:53;7.60;;;6.80;;
5491;SDS011;2768;53.540;10.224;2023-09-08T04:30:47;7.40;;;6.63;;
5491;SDS011;2768;53.540;10.224;2023-09-08T04:36:41;8.23;;;7.40;;
5491;SDS011;2768;53.540;10.224;2023-09-08T04:42:35;9.30;;;7.20;;
5491;SDS011;2768;53.540;10.224;2023-09-08T04:48:30;7.30;;;6.60;;
5491;SDS011;2768;53.540;10.224;2023-09-08T04:54:25;8.63;;;6.97;;
5491;SDS011;2768;53.540;10.224;2023-09-08T05:00:22;7.80;;;7.10;;
5491;SDS011;2768;53.540;10.224;2023-09-08T05:06:17;7.60;;;7.00;;
5491;SDS011;2768;53.540;10.224;2023-09-08T05:12:11;8.33;;;7.53;;
5491;SDS011;2768;53.540;10.224;2023-09-08T05:18:07;10.13;;;7.67;;
5491;SDS011;2768;53.540;10.224;2023-09-08T05:24:01;8.00;;;7.30;;
5491;SDS011;2768;53.540;10.224;2023-09-08T05:29:55;9.60;;;6.90;;
5491;SDS011;2768;53.540;10.224;2023-09-08T05:35:50;8.30;;;7.60;;
5491;SDS011;2768;53.540;10.224;2023-09-08T05:41:43;8.43;;;7.63;;
5491;SDS011;2768;53.540;10.224;2023-09-08T05:47:37;9.03;;;8.13;;
5491;SDS011;2768;53.540;10.224;2023-09-08T05:53:32;8.27;;;7.47;;
5491;SDS011;2768;53.540;10.224;2023-09-08T05:59:28;7.90;;;7.20;;
5491;SDS011;2768;53.540;10.224;2023-09-08T06:05:21;9.33;;;8.23;;
5491;SDS011;2768;53.540;10.224;2023-09-08T06:11:16;10.57;;;9.57;;
5491;SDS011;2768;53.540;10.224;2023-09-08T06:17:09;9.10;;;8.30;;
5491;SDS011;2768;53.540;10.224;2023-09-08T06:23:03;10.10;;;9.07;;
5491;SDS011;2768;53.540;10.224;2023-09-08T06:28:58;10.63;;;9.53;;
5491;SDS011;2768;53.540;10.224;2023-09-08T06:34:51;9.53;;;8.63;;
5491;SDS011;2768;53.540;10.224;2023-09-08T06:40:44;10.30;;;8.30;;
5491;SDS011;2768;53.540;10.224;2023-09-08T06:46:39;10.23;;;9.33;;
5491;SDS011;2768;53.540;10.224;2023-09-08T06:52:33;9.73;;;8.80;;
5491;SDS011;2768;53.540;10.224;2023-09-08T06:58:27;10.37;;;7.83;;
5491;SDS011;2768;53.540;10.224;2023-09-08T07:04:22;8.30;;;7.30;;
5491;SDS011;2768;53.540;10.224;2023-09-08T07:10:16;9.60;;;7.57;;
5491;SDS011;2768;53.540;10.224;2023-09-08T07:16:10;10.20;;;7.77;;
5491;SDS011;2768;53.540;10.224;2023-09-08T07:22:06;8.83;;;7.57;;
5491;SDS011;2768;53.540;10.224;2023-09-08T07:27:59;10.17;;;7.90;;
5491;SDS011;2768;53.540;10.224;2023-09-08T07:33:53;8.33;;;7.53;;
5491;SDS011;2768;53.540;10.224;2023-09-08T07:39:48;8.90;;;7.20;;
5491;SDS011;2768;53.540;10.224;2023-09-08T07:45:42;8.17;;;7.33;;
5491;SDS011;2768;53.540;10.224;2023-09-08T07:51:36;8.27;;;7.57;;
5491;SDS011;2768;53.540;10.224;2023-09-08T07:57:30;8.23;;;7.43;;
5491;SDS011;2768;53.540;10.224;2023-09-08T08:03:23;6.90;;;6.30;;
5491;SDS011;2768;53.540;10.224;2023-09-08T08:09:16;9.90;;;6.93;;
5491;SDS011;2768;53.540;10.224;2023-09-08T08:15:11;7.90;;;7.10;;
5491;SDS011;2768;53.540;10.224;2023-09-08T08:21:05;7.97;;;7.13;;
5491;SDS011;2768;53.540;10.224;2023-09-08T08:26:58;7.57;;;6.87;;
5491;SDS011;2768;53.540;10.224;2023-09-08T08:32:54;7.33;;;6.60;;
5491;SDS011;2768;53.540;10.224;2023-09-08T08:38:47;6.93;;;6.30;;
5491;SDS011;2768;53.540;10.224;2023-09-08T08:44:41;8.00;;;6.83;;
5491;SDS011;2768;53.540;10.224;2023-09-08T08:50:37;6.67;;;6.07;;
5491;SDS011;2768;53.540;10.224;2023-09-08T08:56:35;7.73;;;6.80;;
5491;SDS011;2768;53.540;10.224;2023-09-08T09:02:29;6.90;;;6.30;;
5491;SDS011;2768;53.540;10.224;2023-09-08T09:08:23;8.57;;;6.43;;
5491;SDS011;2768;53.540;10.224;2023-09-08T09:14:18;6.63;;;6.03;;
5491;SDS011;2768;53.540;10.224;2023-09-08T09:20:12;7.07;;;6.47;;
5491;SDS011;2768;53.540;10.224;2023-09-08T09:26:10;7.60;;;6.77;;
5491;SDS011;2768;53.540;10.224;2023-09-08T09:32:16;7.27;;;6.57;;
5491;SDS011;2768;53.540;10.224;2023-09-08T09:38:16;6.33;;;5.73;;
5491;SDS011;2768;53.540;10.224;2023-09-08T09:44:11;9.17;;;5.33;;
5491;SDS011;2768;53.540;10.224;2023-09-08T09:50:05;7.60;;;5.97;;
5491;SDS011;2768;53.540;10.224;2023-09-08T09:56:00;7.77;;;6.23;;
5491;SDS011;2768;53.540;10.224;2023-09-08T10:01:55;5.97;;;5.33;;
5491;SDS011;2768;53.540;10.224;2023-09-08T10:07:50;8.37;;;5.90;;
5491;SDS011;2768;53.540;10.224;2023-09-08T10:13:46;6.60;;;5.90;;
5491;SDS011;2768;53.540;10.224;2023-09-08T10:19:44;9.90;;;6.00;;
5491;SDS011;2768;53.540;10.224;2023-09-08T10:25:43;7.50;;;5.40;;
5491;SDS011;2768;53.540;10.224;2023-09-08T10:31:45;5.73;;;5.20;;
5491;SDS011;2768;53.540;10.224;2023-09-08T10:37:40;6.63;;;6.00;;
5491;SDS011;2768;53.540;10.224;2023-09-08T10:43:33;6.67;;;5.97;;
5491;SDS011;2768;53.540;10.224;2023-09-08T10:49:26;6.07;;;5.57;;
5491;SDS011;2768;53.540;10.224;2023-09-08T10:55:21;5.80;;;5.20;;
5491;SDS011;2768;53.540;10.224;2023-09-08T11:01:28;5.10;;;4.60;;
5491;SDS011;2768;53.540;10.224;2023-09-08T11:07:22;5.90;;;5.40;;
5491;SDS011;2768;53.540;10.224;2023-09-08T11:13:19;5.03;;;4.53;;
5491;SDS011;2768;53.540;10.224;2023-09-08T11:19:12;5.03;;;4.63;;
5491;SDS011;2768;53.540;10.224;2023-09-08T11:25:06;4.87;;;4.47;;
5491;SDS011;2768;53.540;10.224;2023-09-08T11:31:04;5.43;;;4.37;;
5491;SDS011;2768;53.540;10.224;2023-09-08T11:36:58;7.13;;;4.70;;
5491;SDS011;2768;53.540;10.224;2023-09-08T11:42:53;6.00;;;4.30;;
5491;SDS011;2768;53.540;10.224;2023-09-08T11:48:47;5.00;;;4.60;;
5491;SDS011;2768;53.540;10.224;2023-09-08T11:54:41;7.63;;;4.80;;
5491;SDS011;2768;53.540;10.224;2023-09-08T12:00:54;4.47;;;4.10;;
5491;SDS011;2768;53.540;10.224;2023-09-08T12:06:49;5.30;;;4.83;;
5491;SDS011;2768;53.540;10.224;2023-09-08T12:12:45;5.73;;;5.20;;
5491;SDS011;2768;53.540;10.224;2023-09-08T12:18:39;4.80;;;4.40;;
5491;SDS011;2768;53.540;10.224;2023-09-08T12:24:50;4.37;;;4.07;;
5491;SDS011;2768;53.540;10.224;2023-09-08T12:30:50;4.13;;;3.83;;
5491;SDS011;2768;53.540;10.224;2023-09-08T12:36:45;4.50;;;4.10;;
5491;SDS011;2768;53.540;10.224;2023-09-08T12:42:39;4.10;;;3.70;;
5491;SDS011;2768;53.540;10.224;2023-09-08T12:48:40;4.63;;;4.10;;
5491;SDS011;2768;53.540;10.224;2023-09-08T12:54:33;4.13;;;3.83;;
5491;SDS011;2768;53.540;10.224;2023-09-08T13:00:28;3.80;;;3.50;;
5491;SDS011;2768;53.540;10.224;2023-09-08T13:06:21;4.50;;;3.50;;
5491;SDS011;2768;53.540;10.224;2023-09-08T13:12:15;3.30;;;3.07;;
5491;SDS011;2768;53.540;10.224;2023-09-08T13:18:09;3.60;;;3.30;;
5491;SDS011;2768;53.540;10.224;2023-09-08T13:24:05;5.40;;;3.30;;
5491;SDS011;2768;53.540;10.224;2023-09-08T13:30:10;3.20;;;3.00;;
5491;SDS011;2768;53.540;10.224;2023-09-08T13:36:06;3.90;;;3.60;;
5491;SDS011;2768;53.540;10.224;2023-09-08T13:42:00;5.30;;;3.37;;
5491;SDS011;2768;53.540;10.224;2023-09-08T13:47:54;3.77;;;3.20;;
5491;SDS011;2768;53.540;10.224;2023-09-08T13:53:50;3.77;;;3.40;;
5491;SDS011;2768;53.540;10.224;2023-09-08T13:59:44;3.93;;;3.60;;
5491;SDS011;2768;53.540;10.224;2023-09-08T14:05:41;3.40;;;3.20;;
5491;SDS011;2768;53.540;10.224;2023-09-08T14:11:38;5.93;;;3.40;;
5491;SDS011;2768;53.540;10.224;2023-09-08T14:17:53;3.67;;;3.20;;
5491;SDS011;2768;53.540;10.224;2023-09-08T14:23:46;3.30;;;3.10;;
5491;SDS011;2768;53.540;10.224;2023-09-08T14:29:40;3.70;;;3.40;;
5491;SDS011;2768;53.540;10.224;2023-09-08T14:35:34;3.77;;;3.47;;
5491;SDS011;2768;53.540;10.224;2023-09-08T14:41:28;3.60;;;3.30;;
5491;SDS011;2768;53.540;10.224;2023-09-08T14:47:22;3.70;;;3.40;;
5491;SDS011;2768;53.540;10.224;2023-09-08T14:53:16;3.50;;;3.20;;
5491;SDS011;2768;53.540;10.224;2023-09-08T14:59:10;3.87;;;3.40;;
5491;SDS011;2768;53.540;10.224;2023-09-08T15:05:05;5.13;;;3.17;;
5491;SDS011;2768;53.540;10.224;2023-09-08T15:11:00;5.10;;;3.00;;
5491;SDS011;2768;53.540;10.224;2023-09-08T15:16:53;3.93;;;3.60;;
5491;SDS011;2768;53.540;10.224;2023-09-08T15:22:48;4.30;;;2.90;;
5491;SDS011;2768;53.540;10.224;2023-09-08T15:28:42;5.30;;;3.20;;
5491;SDS011;2768;53.540;10.224;2023-09-08T15:34:35;4.30;;;3.97;;
5491;SDS011;2768;53.540;10.224;2023-09-08T15:40:29;4.93;;;3.40;;
5491;SDS011;2768;53.540;10.224;2023-09-08T15:46:22;3.97;;;3.53;;
5491;SDS011;2768;53.540;10.224;2023-09-08T15:52:17;5.83;;;3.90;;
5491;SDS011;2768;53.540;10.224;2023-09-08T15:58:12;5.13;;;4.43;;
5491;SDS011;2768;53.540;10.224;2023-09-08T16:04:06;3.43;;;3.23;;
5491;SDS011;2768;53.540;10.224;2023-09-08T16:10:01;4.20;;;3.80;;
5491;SDS011;2768;53.540;10.224;2023-09-08T16:15:57;4.20;;;3.90;;
5491;SDS011;2768;53.540;10.224;2023-09-08T16:21:50;4.33;;;3.93;;
5491;SDS011;2768;53.540;10.224;2023-09-08T16:27:43;6.93;;;3.87;;
5491;SDS011;2768;53.540;10.224;2023-09-08T16:33:39;6.23;;;3.90;;
5491;SDS011;2768;53.540;10.224;2023-09-08T16:39:32;6.37;;;3.70;;
5491;SDS011;2768;53.540;10.224;2023-09-08T16:45:26;4.60;;;3.90;;
5491;SDS011;2768;53.540;10.224;2023-09-08T16:51:20;7.30;;;3.90;;
5491;SDS011;2768;53.540;10.224;2023-09-08T16:57:14;4.93;;;3.67;;
5491;SDS011;2768;53.540;10.224;2023-09-08T17:03:08;4.57;;;4.17;;
5491;SDS011;2768;53.540;10.224;2023-09-08T17:09:04;4.20;;;3.90;;
5491;SDS011;2768;53.540;10.224;2023-09-08T17:14:57;4.30;;;4.00;;
5491;SDS011;2768;53.540;10.224;2023-09-08T17:20:51;5.37;;;4.00;;
5491;SDS011;2768;53.540;10.224;2023-09-08T17:26:46;7.03;;;4.60;;
5491;SDS011;2768;53.540;10.224;2023-09-08T17:32:40;6.63;;;4.70;;
5491;SDS011;2768;53.540;10.224;2023-09-08T17:38:33;4.90;;;4.50;;
5491;SDS011;2768;53.540;10.224;2023-09-08T17:44:29;4.57;;;4.27;;
5491;SDS011;2768;53.540;10.224;2023-09-08T17:50:23;5.67;;;4.70;;
5491;SDS011;2768;53.540;10.224;2023-09-08T17:56:16;6.23;;;4.70;;
5491;SDS011;2768;53.540;10.224;2023-09-08T18:02:11;5.50;;;4.43;;
5491;SDS011;2768;53.540;10.224;2023-09-08T18:08:04;5.07;;;4.50;;
5491;SDS011;2768;53.540;10.224;2023-09-08T18:13:59;5.87;;;4.70;;
5491;SDS011;2768;53.540;10.224;2023-09-08T18:19:54;5.47;;;4.37;;
5491;SDS011;2768;53.540;10.224;2023-09-08T18:25:48;6.70;;;5.30;;
5491;SDS011;2768;53.540;10.224;2023-09-08T18:31:41;8.53;;;5.63;;
5491;SDS011;2768;53.540;10.224;2023-09-08T18:37:37;5.93;;;5.43;;
5491;SDS011;2768;53.540;10.224;2023-09-08T18:43:30;7.93;;;7.13;;
5491;SDS011;2768;53.540;10.224;2023-09-08T18:49:23;15.97;;;7.50;;
5491;SDS011;2768;53.540;10.224;2023-09-08T18:55:18;8.60;;;7.70;;
5491;SDS011;2768;53.540;10.224;2023-09-08T19:01:12;14.33;;;9.17;;
5491;SDS011;2768;53.540;10.224;2023-09-08T19:07:06;11.90;;;8.97;;
5491;SDS011;2768;53.540;10.224;2023-09-08T19:13:01;6.97;;;6.37;;
5491;SDS011;2768;53.540;10.224;2023-09-08T19:18:56;8.70;;;6.47;;
5491;SDS011;2768;53.540;10.224;2023-09-08T19:24:50;7.33;;;6.73;;
5491;SDS011;2768;53.540;10.224;2023-09-08T19:30:48;7.27;;;6.57;;
5491;SDS011;2768;53.540;10.224;2023-09-08T19:36:43;7.67;;;6.97;;
5491;SDS011;2768;53.540;10.224;2023-09-08T19:42:36;6.80;;;6.20;;
5491;SDS011;2768;53.540;10.224;2023-09-08T19:48:31;7.63;;;5.90;;
5491;SDS011;2768;53.540;10.224;2023-09-08T19:54:25;6.13;;;5.60;;
5491;SDS011;2768;53.540;10.224;2023-09-08T20:00:19;9.07;;;8.10;;
5491;SDS011;2768;53.540;10.224;2023-09-08T20:06:14;6.37;;;5.77;;
5491;SDS011;2768;53.540;10.224;2023-09-08T20:12:09;6.70;;;6.10;;
5491;SDS011;2768;53.540;10.224;2023-09-08T20:18:02;5.83;;;5.33;;
5491;SDS011;2768;53.540;10.224;2023-09-08T20:23:58;6.77;;;6.07;;
5491;SDS011;2768;53.540;10.224;2023-09-08T20:29:53;6.33;;;5.73;;
5491;SDS011;2768;53.540;10.224;2023-09-08T20:35:47;6.13;;;5.37;;
5491;SDS011;2768;53.540;10.224;2023-09-08T20:41:42;6.67;;;5.97;;
5491;SDS011;2768;53.540;10.224;2023-09-08T20:47:36;6.53;;;5.83;;
5491;SDS011;2768;53.540;10.224;2023-09-08T20:53:30;6.67;;;6.07;;
5491;SDS011;2768;53.540;10.224;2023-09-08T20:59:25;6.73;;;5.70;;
5491;SDS011;2768;53.540;10.224;2023-09-08T21:05:20;7.43;;;6.13;;
5491;SDS011;2768;53.540;10.224;2023-09-08T21:11:13;6.63;;;5.80;;
5491;SDS011;2768;53.540;10.224;2023-09-08T21:17:09;7.00;;;5.73;;
5491;SDS011;2768;53.540;10.224;2023-09-08T21:23:03;7.00;;;6.30;;
5491;SDS011;2768;53.540;10.224;2023-09-08T21:28:57;6.57;;;6.07;;
5491;SDS011;2768;53.540;10.224;2023-09-08T21:34:52;6.20;;;5.30;;
5491;SDS011;2768;53.540;10.224;2023-09-08T21:40:45;6.67;;;6.10;;
5491;SDS011;2768;53.540;10.224;2023-09-08T21:46:39;6.60;;;6.00;;
5491;SDS011;2768;53.540;10.224;2023-09-08T21:52:34;10.43;;;6.03;;
5491;SDS011;2768;53.540;10.224;2023-09-08T21:58:30;6.37;;;5.77;;
5491;SDS011;2768;53.540;10.224;2023-09-08T22:04:23;6.57;;;6.07;;
5491;SDS011;2768;53.540;10.224;2023-09-08T22:10:18;6.90;;;6.20;;
5491;SDS011;2768;53.540;10.224;2023-09-08T22:16:13;6.37;;;5.73;;
5491;SDS011;2768;53.540;10.224;2023-09-08T22:22:06;8.93;;;7.50;;
5491;SDS011;2768;53.540;10.224;2023-09-08T22:28:01;10.43;;;7.13;;
5491;SDS011;2768;53.540;10.224;2023-09-08T22:33:55;6.67;;;6.03;;
5491;SDS011;2768;53.540;10.224;2023-09-08T22:39:49;6.97;;;6.40;;
5491;SDS011;2768;53.540;10.224;2023-09-08T22:45:44;10.27;;;6.40;;
5491;SDS011;2768;53.540;10.224;2023-09-08T22:51:37;6.33;;;5.83;;
5491;SDS011;2768;53.540;10.224;2023-09-08T22:57:31;6.13;;;5.50;;
5491;SDS011;2768;53.540;10.224;2023-09-08T23:03:26;6.70;;;6.10;;
5491;SDS011;2768;53.540;10.224;2023-09-08T23:09:20;7.57;;;6.43;;
5491;SDS011;2768;53.540;10.224;2023-09-08T23:15:13;7.67;;;6.83;;
5491;SDS011;2768;53.540;10.224;2023-09-08T23:21:08;7.07;;;6.37;;
5491;SDS011;2768;53.540;10.224;2023-09-08T23:27:02;10.97;;;6.90;;
5491;SDS011;2768;53.540;10.224;2023-09-08T23:32:56;6.63;;;6.07;;
5491;SDS011;2768;53.540;10.224;2023-09-08T23:38:51;7.43;;;6.47;;
5491;SDS011;2768;53.540;10.224;2023-09-08T23:44:44;7.43;;;6.73;;
5491;SDS011;2768;53.540;10.224;2023-09-08T23:50:48;6.93;;;6.33;;
5491;SDS011;2768;53.540;10.224;2023-09-08T23:56:47;7.87;;;7.07;;
